Time;durP1;ratioP1;P1;durP2;ratioP2;P2;SDS_P1;SDS_P2;PMS_P1;PMS_P2;Temp;Humidity;BMP_temperature;BMP_pressure;BME280_temperature;BME280_humidity;BME280_pressure;Samples;Min_cycle;Max_cycle;Signal;HPM_P1;HPM_P2
2022/02/24 00:06:51;;;;;;;33.70;19.10;;;;;;;-2.01;76.96;100198.29;446029;1272;143036;-66
2022/02/24 00:16:57;;;;;;;46.00;23.40;;;;;;;-2.09;77.45;100196.08;447041;1270;142467;-65
2022/02/24 00:27:03;;;;;;;30.60;17.00;;;;;;;-2.18;77.69;100197.98;446036;1271;143650;-63
2022/02/24 00:37:08;;;;;;;38.10;19.00;;;;;;;-2.33;77.44;100209.14;432312;1271;141227;-71
2022/02/24 00:47:15;;;;;;;38.80;19.30;;;;;;;-2.57;77.30;100210.70;439482;1271;142503;-72
2022/02/24 00:57:20;;;;;;;66.70;34.60;;;;;;;-2.80;77.38;100211.38;445988;1272;143362;-68
2022/02/24 01:07:26;;;;;;;64.40;32.90;;;;;;;-2.93;78.05;100217.53;437856;1271;142015;-68
2022/02/24 01:17:33;;;;;;;59.90;32.60;;;;;;;-3.00;78.51;100208.97;446842;1272;142966;-71
2022/02/24 01:27:42;;;;;;;57.60;32.10;;;;;;;-2.92;79.24;100198.35;446076;1272;142703;-71
2022/02/24 01:37:48;;;;;;;51.00;27.00;;;;;;;-2.81;79.71;100190.30;440181;1272;142295;-65
2022/02/24 01:47:55;;;;;;;42.00;21.70;;;;;;;-2.79;80.00;100176.94;435036;1269;142356;-63
2022/02/24 01:58:02;;;;;;;35.00;21.30;;;;;;;-2.79;80.21;100165.45;447180;1271;143811;-62
2022/02/24 02:08:09;;;;;;;41.50;23.50;;;;;;;-2.84;80.31;100157.57;447212;1271;142858;-63
2022/02/24 02:18:15;;;;;;;38.40;21.00;;;;;;;-2.99;79.97;100152.09;444883;1271;142319;-62
2022/02/24 02:28:21;;;;;;;48.90;25.90;;;;;;;-3.12;79.80;100156.52;435005;1271;142652;-61
2022/02/24 02:38:27;;;;;;;49.50;25.50;;;;;;;-3.34;79.58;100155.13;439351;1271;167460;-61
2022/02/24 02:48:33;;;;;;;40.90;17.90;;;;;;;-3.49;79.75;100151.83;446333;1271;143103;-61
2022/02/24 02:58:39;;;;;;;32.80;18.00;;;;;;;-3.46;80.45;100142.25;447047;1271;144331;-61
2022/02/24 03:08:45;;;;;;;45.60;22.60;;;;;;;-3.41;80.86;100140.73;447015;1271;143469;-62
2022/02/24 03:18:51;;;;;;;36.10;19.80;;;;;;;-3.46;80.80;100135.58;431777;1271;142838;-61
2022/02/24 03:28:57;;;;;;;33.50;17.00;;;;;;;-3.52;81.21;100121.35;440235;1271;142572;-62
2022/02/24 03:39:03;;;;;;;33.60;19.10;;;;;;;-3.47;81.62;100119.14;446283;1271;143474;-61
2022/02/24 03:49:08;;;;;;;27.40;15.50;;;;;;;-3.43;81.71;100113.33;447082;1271;142159;-62
2022/02/24 03:59:14;;;;;;;24.80;15.20;;;;;;;-3.42;81.84;100104.94;447069;1271;144100;-68
2022/02/24 04:09:20;;;;;;;28.40;15.80;;;;;;;-3.44;82.01;100106.48;446267;1271;143745;-61
2022/02/24 04:19:26;;;;;;;28.50;15.80;;;;;;;-3.49;82.13;100101.67;447122;1271;143138;-62
2022/02/24 04:29:32;;;;;;;32.50;18.10;;;;;;;-3.49;82.26;100091.91;447072;1271;143421;-62
2022/02/24 04:39:38;;;;;;;31.10;18.70;;;;;;;-3.50;82.35;100083.52;434333;1271;143242;-62
2022/02/24 04:49:43;;;;;;;29.50;17.10;;;;;;;-3.58;82.29;100079.41;441768;1271;142825;-62
2022/02/24 04:59:49;;;;;;;24.20;13.90;;;;;;;-3.66;82.56;100076.83;445179;1271;142672;-62
2022/02/24 05:09:56;;;;;;;28.30;14.20;;;;;;;-3.61;82.81;100070.50;442658;1272;143432;-62
2022/02/24 05:20:03;;;;;;;21.90;13.90;;;;;;;-3.55;82.87;100067.09;446858;1273;143103;-61
2022/02/24 05:30:11;;;;;;;33.40;17.40;;;;;;;-3.59;82.96;100072.90;446082;1272;145973;-62
2022/02/24 05:40:17;;;;;;;34.00;17.00;;;;;;;-3.54;83.10;100082.66;446892;1271;142457;-63
2022/02/24 05:50:23;;;;;;;26.10;16.60;;;;;;;-3.43;83.23;100076.52;446904;1271;143034;-62
2022/02/24 06:00:29;;;;;;;33.10;19.20;;;;;;;-3.20;83.50;100068.14;446115;1273;143077;-62
2022/02/24 06:10:35;;;;;;;29.10;16.30;;;;;;;-2.95;83.32;100063.34;446741;1271;144074;-62
2022/02/24 06:20:40;;;;;;;18.20;10.80;;;;;;;-2.60;83.28;100066.02;435712;1271;142667;-63
2022/02/24 06:30:47;;;;;;;26.50;15.10;;;;;;;-2.11;83.06;100061.73;443819;1271;142023;-63
2022/02/24 06:40:53;;;;;;;29.90;17.40;;;;;;;0.57;83.21;100052.48;446922;1272;143332;-62
2022/02/24 06:50:58;;;;;;;24.40;14.70;;;;;;;5.86;78.02;100031.43;447004;1271;142652;-62
2022/02/24 07:01:09;;;;;;;23.00;13.70;;;;;;;9.76;71.77;100009.16;447108;1271;142161;-63
2022/02/24 07:11:15;;;;;;;20.50;14.10;;;;;;;12.89;66.44;99991.99;447121;1270;143649;-62
2022/02/24 07:21:21;;;;;;;22.40;13.40;;;;;;;15.55;61.67;99974.09;446357;1271;163306;-64
2022/02/24 07:31:27;;;;;;;16.30;9.70;;;;;;;17.41;56.86;99958.42;446659;1271;142057;-63
2022/02/24 07:41:33;;;;;;;15.30;10.40;;;;;;;19.12;53.23;99951.46;447132;1270;142345;-63
2022/02/24 07:51:39;;;;;;;17.00;10.80;;;;;;;20.45;49.77;99940.04;446345;1271;185638;-64
2022/02/24 08:01:45;;;;;;;19.30;10.20;;;;;;;21.89;46.62;99931.17;430607;1270;141774;-64
2022/02/24 08:22:11;;;;;;;15.00;11.20;;;;;;;23.44;41.06;99917.98;447028;1271;142895;-63
2022/02/24 08:32:16;;;;;;;;;;;;;;;23.44;38.64;99906.30;446960;1272;141426;-67
2022/02/24 08:42:25;;;;;;;19.50;11.00;;;;;;;23.75;37.04;99890.30;446116;1272;149153;-62
2022/02/24 08:52:31;;;;;;;17.00;10.80;;;;;;;24.15;35.48;99866.94;446980;1273;142378;-63
2022/02/24 09:02:35;;;;;;;;;;;;;;;24.26;34.88;99847.65;447149;1271;143087;-61
2022/02/24 09:12:42;;;;;;;15.50;10.60;;;;;;;24.54;33.77;99820.31;446712;1271;128479;-65
2022/02/24 09:22:47;;;;;;;16.50;10.00;;;;;;;25.45;32.58;99793.83;439946;1273;142669;-62
2022/02/24 09:32:55;;;;;;;15.30;10.00;;;;;;;24.99;31.62;99779.40;439606;1272;142350;-61
2022/02/24 09:42:59;;;;;;;;;;;;;;;18.26;33.33;99770.20;446930;1272;142566;-63
2022/02/24 09:53:05;;;;;;;12.10;8.70;;;;;;;13.44;36.94;99763.12;447114;1273;129138;-63
2022/02/24 10:03:31;;;;;;;16.60;9.70;;;;;;;11.29;39.85;99747.88;446017;1272;144297;-63
2022/02/24 10:13:37;;;;;;;18.20;8.90;;;;;;;9.90;41.88;99735.64;447025;1271;141632;-64
2022/02/24 10:23:43;;;;;;;14.30;7.90;;;;;;;9.13;43.40;99714.50;446859;1273;142091;-63
2022/02/24 10:33:51;;;;;;;12.40;7.60;;;;;;;8.74;44.58;99693.44;442749;1271;141876;-63
2022/02/24 10:44:13;;;;;;;12.70;5.20;;;;;;;8.43;45.45;99667.98;445938;1271;143133;-64
2022/02/24 10:54:27;;;;;;;6.90;4.00;;;;;;;8.29;45.93;99650.10;446131;1272;142334;-61
2022/02/24 11:04:33;;;;;;;10.30;3.90;;;;;;;8.27;46.48;99631.15;446917;1272;141379;-62
2022/02/24 11:14:40;;;;;;;9.80;4.60;;;;;;;8.32;46.25;99613.66;446794;1272;142091;-61
2022/02/24 11:24:47;;;;;;;8.80;4.40;;;;;;;8.34;46.60;99593.84;446397;1271;142323;-66
2022/02/24 11:35:06;;;;;;;6.70;4.40;;;;;;;8.35;46.39;99581.60;446826;1272;142145;-59
2022/02/24 11:45:35;;;;;;;11.50;4.90;;;;;;;8.50;47.13;99564.18;437443;1272;141842;-68
2022/02/24 11:55:53;;;;;;;8.40;4.20;;;;;;;8.61;46.82;99544.09;431559;1273;141721;-68
2022/02/24 12:06:08;;;;;;;8.50;5.00;;;;;;;8.58;46.69;99514.90;434118;1271;141049;-68
2022/02/24 12:16:15;;;;;;;11.50;5.30;;;;;;;8.63;46.96;99491.27;433020;1270;141401;-70
2022/02/24 12:26:38;;;;;;;9.00;3.60;;;;;;;8.73;46.98;99470.24;447336;1271;140713;-67
2022/02/24 12:36:44;;;;;;;11.90;4.30;;;;;;;8.79;46.66;99443.39;436209;1270;141192;-70
2022/02/24 12:46:50;;;;;;;8.70;5.10;;;;;;;8.92;46.78;99417.13;442597;1270;142166;-68
2022/02/24 12:57:03;;;;;;;10.60;4.10;;;;;;;8.91;46.48;99387.17;447040;1271;141154;-68
2022/02/24 13:07:09;;;;;;;10.30;5.40;;;;;;;8.87;46.59;99367.55;438077;1271;142198;-67
2022/02/24 13:17:24;;;;;;;7.10;3.90;;;;;;;8.84;46.66;99337.65;447418;1270;141132;-68
2022/02/24 13:27:29;;;;;;;9.30;4.10;;;;;;;8.96;46.49;99299.39;436003;1271;144588;-66
2022/02/24 13:37:38;;;;;;;7.40;4.20;;;;;;;9.16;46.25;99280.54;432709;1273;141873;-65
2022/02/24 13:47:56;;;;;;;8.80;3.40;;;;;;;9.37;46.20;99261.60;445066;1272;142403;-66
2022/02/24 13:58:05;;;;;;;10.00;4.20;;;;;;;9.57;46.14;99241.20;433501;1271;142819;-62
2022/02/24 14:08:11;;;;;;;7.80;4.00;;;;;;;9.75;46.02;99227.29;433170;1270;143444;-65
2022/02/24 14:18:17;;;;;;;9.50;3.90;;;;;;;9.67;45.47;99208.23;433368;1271;142563;-65
2022/02/24 14:28:23;;;;;;;7.50;4.10;;;;;;;9.53;45.47;99200.45;447190;1270;142673;-68
2022/02/24 14:38:29;;;;;;;8.30;4.70;;;;;;;9.33;45.39;99191.58;446246;1271;212924;-64
2022/02/24 14:48:36;;;;;;;13.00;6.30;;;;;;;8.93;45.78;99187.00;429704;1271;141520;-61
2022/02/24 14:58:42;;;;;;;9.80;4.00;;;;;;;8.48;46.28;99172.12;446890;1270;141907;-65
2022/02/24 15:08:49;;;;;;;6.20;4.50;;;;;;;8.20;46.81;99162.46;447095;1271;141184;-62
2022/02/24 15:18:55;;;;;;;7.80;4.60;;;;;;;8.08;47.16;99164.06;445824;1273;143697;-67
2022/02/24 15:29:01;;;;;;;9.00;5.00;;;;;;;7.84;47.79;99148.25;443504;1272;141613;-66
2022/02/24 15:39:07;;;;;;;7.70;4.70;;;;;;;7.67;48.04;99127.48;446027;1271;142545;-64
2022/02/24 15:49:13;;;;;;;13.10;6.10;;;;;;;7.51;48.40;99119.02;446680;1270;142463;-65
2022/02/24 15:59:19;;;;;;;12.50;6.80;;;;;;;7.26;48.80;99103.71;446642;1272;141306;-66
2022/02/24 16:09:25;;;;;;;13.40;7.10;;;;;;;6.95;48.96;99099.73;446298;1271;143586;-65
2022/02/24 16:19:30;;;;;;;15.70;8.00;;;;;;;6.72;49.18;99100.48;447234;1271;141557;-64
2022/02/24 16:29:36;;;;;;;10.00;6.10;;;;;;;6.51;49.57;99090.70;444367;1271;141981;-64
2022/02/24 16:39:44;;;;;;;13.60;8.20;;;;;;;6.32;49.84;99079.38;446432;1271;145362;-64
2022/02/24 16:49:50;;;;;;;13.40;7.60;;;;;;;6.15;50.17;99061.73;446955;1272;141548;-64
2022/02/24 16:59:56;;;;;;;20.00;11.40;;;;;;;5.99;50.64;99057.85;445940;1271;141593;-64
2022/02/24 17:10:03;;;;;;;21.70;13.90;;;;;;;5.79;51.09;99056.43;438290;1271;140926;-65
2022/02/24 17:20:10;;;;;;;25.50;14.50;;;;;;;5.58;51.62;99055.09;443627;1271;140877;-70
2022/02/24 17:30:17;;;;;;;16.60;10.20;;;;;;;5.40;52.16;99051.17;437232;1271;142257;-66
2022/02/24 17:40:23;;;;;;;21.10;12.90;;;;;;;5.22;52.70;99043.77;437881;1271;144925;-66
2022/02/24 17:50:29;;;;;;;28.80;13.30;;;;;;;5.01;53.15;99027.40;447249;1271;184953;-66
2022/02/24 18:00:35;;;;;;;28.60;16.60;;;;;;;4.85;53.43;99024.73;446200;1271;141954;-65
2022/02/24 18:10:41;;;;;;;39.00;18.60;;;;;;;4.69;53.95;99020.67;447011;1271;141854;-66
2022/02/24 18:20:47;;;;;;;25.80;14.70;;;;;;;4.50;54.42;99004.59;432969;1273;143015;-66
2022/02/24 18:30:53;;;;;;;36.10;19.10;;;;;;;4.28;54.79;98997.65;441090;1271;141657;-64
2022/02/24 18:40:59;;;;;;;43.40;23.10;;;;;;;4.10;55.24;98989.84;435778;1273;141877;-59
2022/02/24 18:51:05;;;;;;;26.30;14.20;;;;;;;4.01;55.60;98979.17;444445;1272;141221;-58
2022/02/24 19:01:11;;;;;;;21.60;13.20;;;;;;;4.00;56.11;98983.03;446690;1272;142051;-59
2022/02/24 19:11:18;;;;;;;21.00;11.00;;;;;;;3.98;56.39;98974.95;446860;1271;142627;-62
2022/02/24 19:21:24;;;;;;;20.30;11.50;;;;;;;4.05;56.84;98957.70;445893;1272;141194;-58
2022/02/24 19:31:31;;;;;;;16.60;9.10;;;;;;;4.17;57.05;98938.08;446854;1272;141010;-67
2022/02/24 19:41:38;;;;;;;13.50;7.80;;;;;;;4.25;57.32;98925.73;441017;1273;141005;-68
2022/02/24 19:51:44;;;;;;;13.60;6.10;;;;;;;4.35;57.73;98917.26;441643;1271;141537;-68
2022/02/24 20:01:50;;;;;;;14.90;6.10;;;;;;;4.51;58.00;98902.25;446967;1271;144033;-71
2022/02/24 20:11:56;;;;;;;15.60;7.60;;;;;;;4.66;58.05;98895.09;446787;1271;140996;-71
2022/02/24 20:22:03;;;;;;;14.20;8.00;;;;;;;4.76;58.34;98886.99;438509;1271;141326;-71
2022/02/24 20:32:10;;;;;;;15.00;7.00;;;;;;;4.83;58.41;98873.28;434750;1271;142222;-71
2022/02/24 20:42:17;;;;;;;10.30;7.00;;;;;;;4.92;58.46;98872.14;433989;1270;140590;-73
2022/02/24 20:52:24;;;;;;;11.40;6.30;;;;;;;4.93;58.71;98862.37;434722;1270;143346;-71
2022/02/24 21:02:32;;;;;;;13.20;7.30;;;;;;;4.98;58.79;98852.38;445302;1270;141294;-71
2022/02/24 21:12:38;;;;;;;14.80;7.30;;;;;;;5.07;58.93;98843.93;446368;1270;141727;-72
2022/02/24 21:22:44;;;;;;;13.00;6.80;;;;;;;5.28;58.86;98836.55;447342;1270;142118;-70
2022/02/24 21:32:50;;;;;;;12.20;6.60;;;;;;;5.51;58.91;98829.60;441804;1270;140411;-70
2022/02/24 21:42:55;;;;;;;10.20;6.00;;;;;;;5.62;58.55;98816.30;433577;1270;140973;-68
2022/02/24 21:53:01;;;;;;;10.40;6.00;;;;;;;5.66;58.56;98803.62;434068;1271;141885;-70
2022/02/24 22:03:07;;;;;;;9.40;5.20;;;;;;;5.65;58.71;98798.97;433712;1270;141307;-69
2022/02/24 22:13:17;;;;;;;10.50;5.30;;;;;;;5.68;58.78;98785.61;434545;1271;140278;-69
2022/02/24 22:23:23;;;;;;;8.10;5.50;;;;;;;5.80;58.45;98781.96;434379;1271;140052;-69
2022/02/24 22:33:32;;;;;;;10.70;4.80;;;;;;;5.89;58.30;98768.24;434314;1269;140965;-68
2022/02/24 22:43:38;;;;;;;7.70;4.70;;;;;;;6.05;58.02;98748.92;443253;1271;142328;-70
2022/02/24 22:53:44;;;;;;;6.40;4.30;;;;;;;6.19;57.77;98738.21;443433;1271;141332;-70
2022/02/24 23:14:14;;;;;;;9.00;4.80;;;;;;;6.46;57.05;98732.30;445877;1271;141795;-67
2022/02/24 23:24:20;;;;;;;8.40;4.10;;;;;;;6.55;56.68;98727.95;446597;1271;141295;-61
2022/02/24 23:34:25;;;;;;;5.50;3.50;;;;;;;6.63;56.46;98723.42;446970;1269;141136;-63
2022/02/24 23:44:31;;;;;;;6.70;3.80;;;;;;;6.74;56.21;98730.39;447026;1271;141410;-64
2022/02/24 23:54:37;;;;;;;4.40;3.40;;;;;;;6.84;55.83;98743.84;446490;1271;141443;-64
